aviador You're here:

LJMB Decoded Metar

MARIBOR in SLOVENIA
Report Time2017-11-22 21:30:00
UTC Time2017-11-22 21:57:06
Flight Rules ifr IFR
Wind300° at 01 kt
W.Decomp.*RWY 32: 0.9 kt HW 0.4 kt LCW
W.Rank300° ranks 31
Current wind is below 300° avg. (2.5)
Visibility2500 m
Phenomena:Mist
Clouds:N/A
Expected CloudBase > 400 ft AGL from Temp-Dew spread
CeilingNone
Temp02°C (ISA -11)
Dew Point01°C (93% RH)
AAT-0.2°C
QNH1015 hPa
Density Alt-476 ft
Elevation869 ft
Report Wrong Elevation
Raw Report
LJMB 222130Z AUTO 30001KT 2500 R32/1900N BR NCD 02/01 Q1015=

Extra information for LJMB:More info

Metar Taf Metar & Taf Last 4 Metars F.Rules Stats Wind Profile Meteogram Temp Stats Airport Information Weather charts Add Link Nearby VenuesMetar ALERT Operation Metar Decoded Social comments